Cedar Rapids (CID/KCID)

Map

Destinations

Information

Location
Cedar Rapids, IA
Local Time
13:12 / 1:12 pm
GMT Time
18:12 / 6:12 pm
Gates
A6
No FAA reported delays
METAR KCID 201752Z 19012KT 10SM SCT034 30/21 A2978 RMK AO2 SLP079 T03000211 10306 20206 58004
TAF KCID 201738Z 2018/2118 20014G19KT P6SM SCT030 TEMPO 2019/2022 P6SM BKN030 FM202200 23008KT P6SM SCT030 FM202330 26006KT P6SM VCTS SCT030CB TEMPO 2100/2104 VRB15G25KT 4SM -TSRA BR BKN023CB FM210500 02005KT 6SM BR BKN020 FM210800 03007KT 2SM BR BKN012 FM211300 10007KT 2SM BR BKN018 FM211600 14008KT 5SM BR BKN022